sensor_id;sensor_type;location;lat;lon;timestamp;P1;durP1;ratioP1;P2;durP2;ratioP2
6255;SDS011;3161;48.794;9.784;2024-03-22T00:02:27;9.27;;;6.37;;
6255;SDS011;3161;48.794;9.784;2024-03-22T00:04:55;10.67;;;6.67;;
6255;SDS011;3161;48.794;9.784;2024-03-22T00:07:23;12.10;;;7.23;;
6255;SDS011;3161;48.794;9.784;2024-03-22T00:09:51;10.13;;;6.30;;
6255;SDS011;3161;48.794;9.784;2024-03-22T00:12:18;10.97;;;7.13;;
6255;SDS011;3161;48.794;9.784;2024-03-22T00:14:46;11.43;;;6.60;;
6255;SDS011;3161;48.794;9.784;2024-03-22T00:17:13;9.63;;;6.77;;
6255;SDS011;3161;48.794;9.784;2024-03-22T00:19:41;10.40;;;5.93;;
6255;SDS011;3161;48.794;9.784;2024-03-22T00:22:08;8.37;;;5.43;;
6255;SDS011;3161;48.794;9.784;2024-03-22T00:24:36;10.77;;;6.07;;
6255;SDS011;3161;48.794;9.784;2024-03-22T00:27:04;8.53;;;6.13;;
6255;SDS011;3161;48.794;9.784;2024-03-22T00:29:32;7.97;;;6.40;;
6255;SDS011;3161;48.794;9.784;2024-03-22T00:31:59;8.13;;;5.90;;
6255;SDS011;3161;48.794;9.784;2024-03-22T00:34:27;7.17;;;5.37;;
6255;SDS011;3161;48.794;9.784;2024-03-22T00:36:54;10.13;;;6.63;;
6255;SDS011;3161;48.794;9.784;2024-03-22T00:39:22;10.97;;;5.90;;
6255;SDS011;3161;48.794;9.784;2024-03-22T00:41:49;10.20;;;6.33;;
6255;SDS011;3161;48.794;9.784;2024-03-22T00:44:17;10.03;;;6.37;;
6255;SDS011;3161;48.794;9.784;2024-03-22T00:46:44;11.30;;;6.60;;
6255;SDS011;3161;48.794;9.784;2024-03-22T00:49:12;10.13;;;5.87;;
6255;SDS011;3161;48.794;9.784;2024-03-22T00:51:39;8.17;;;6.00;;
6255;SDS011;3161;48.794;9.784;2024-03-22T00:54:09;9.17;;;6.23;;
6255;SDS011;3161;48.794;9.784;2024-03-22T00:56:36;9.90;;;6.13;;
6255;SDS011;3161;48.794;9.784;2024-03-22T00:59:04;7.17;;;5.77;;
6255;SDS011;3161;48.794;9.784;2024-03-22T01:01:32;8.83;;;5.90;;
6255;SDS011;3161;48.794;9.784;2024-03-22T01:04:00;8.83;;;6.03;;
6255;SDS011;3161;48.794;9.784;2024-03-22T01:06:27;9.63;;;5.83;;
6255;SDS011;3161;48.794;9.784;2024-03-22T01:08:55;8.60;;;6.33;;
6255;SDS011;3161;48.794;9.784;2024-03-22T01:11:22;9.83;;;6.40;;
6255;SDS011;3161;48.794;9.784;2024-03-22T01:13:50;7.33;;;6.13;;
6255;SDS011;3161;48.794;9.784;2024-03-22T01:16:18;9.63;;;5.97;;
6255;SDS011;3161;48.794;9.784;2024-03-22T01:18:45;11.03;;;6.93;;
6255;SDS011;3161;48.794;9.784;2024-03-22T01:21:13;8.57;;;6.30;;
6255;SDS011;3161;48.794;9.784;2024-03-22T01:23:40;10.83;;;6.23;;
6255;SDS011;3161;48.794;9.784;2024-03-22T01:26:08;13.27;;;6.60;;
6255;SDS011;3161;48.794;9.784;2024-03-22T01:28:35;10.07;;;6.63;;
6255;SDS011;3161;48.794;9.784;2024-03-22T01:31:03;9.80;;;6.10;;
6255;SDS011;3161;48.794;9.784;2024-03-22T01:33:30;7.93;;;6.03;;
6255;SDS011;3161;48.794;9.784;2024-03-22T01:35:58;10.50;;;5.67;;
6255;SDS011;3161;48.794;9.784;2024-03-22T01:38:25;9.30;;;6.10;;
6255;SDS011;3161;48.794;9.784;2024-03-22T01:40:53;8.83;;;5.47;;
6255;SDS011;3161;48.794;9.784;2024-03-22T01:43:21;8.53;;;6.27;;
6255;SDS011;3161;48.794;9.784;2024-03-22T01:45:49;7.20;;;5.77;;
6255;SDS011;3161;48.794;9.784;2024-03-22T01:48:16;14.57;;;6.57;;
6255;SDS011;3161;48.794;9.784;2024-03-22T01:50:44;12.13;;;7.17;;
6255;SDS011;3161;48.794;9.784;2024-03-22T01:53:12;11.47;;;6.27;;
6255;SDS011;3161;48.794;9.784;2024-03-22T01:55:39;11.60;;;7.23;;
6255;SDS011;3161;48.794;9.784;2024-03-22T01:58:07;10.53;;;7.00;;
6255;SDS011;3161;48.794;9.784;2024-03-22T02:00:35;11.73;;;6.97;;
6255;SDS011;3161;48.794;9.784;2024-03-22T02:03:02;11.70;;;7.67;;
6255;SDS011;3161;48.794;9.784;2024-03-22T02:05:30;16.47;;;7.67;;
6255;SDS011;3161;48.794;9.784;2024-03-22T02:07:57;10.47;;;7.50;;
6255;SDS011;3161;48.794;9.784;2024-03-22T02:10:25;14.97;;;7.77;;
6255;SDS011;3161;48.794;9.784;2024-03-22T02:12:53;10.03;;;7.33;;
6255;SDS011;3161;48.794;9.784;2024-03-22T02:15:20;13.00;;;7.50;;
6255;SDS011;3161;48.794;9.784;2024-03-22T02:17:48;10.73;;;7.00;;
6255;SDS011;3161;48.794;9.784;2024-03-22T02:20:15;15.50;;;7.60;;
6255;SDS011;3161;48.794;9.784;2024-03-22T02:22:43;11.90;;;7.17;;
6255;SDS011;3161;48.794;9.784;2024-03-22T02:25:10;14.93;;;7.43;;
6255;SDS011;3161;48.794;9.784;2024-03-22T02:27:38;11.87;;;7.40;;
6255;SDS011;3161;48.794;9.784;2024-03-22T02:30:06;11.73;;;7.63;;
6255;SDS011;3161;48.794;9.784;2024-03-22T02:32:34;9.63;;;6.67;;
6255;SDS011;3161;48.794;9.784;2024-03-22T02:35:03;11.67;;;7.10;;
6255;SDS011;3161;48.794;9.784;2024-03-22T02:37:31;8.97;;;7.00;;
6255;SDS011;3161;48.794;9.784;2024-03-22T02:39:58;9.97;;;6.80;;
6255;SDS011;3161;48.794;9.784;2024-03-22T02:42:26;10.37;;;7.00;;
6255;SDS011;3161;48.794;9.784;2024-03-22T02:44:53;12.27;;;7.10;;
6255;SDS011;3161;48.794;9.784;2024-03-22T02:47:21;7.67;;;6.30;;
6255;SDS011;3161;48.794;9.784;2024-03-22T02:49:48;10.33;;;5.93;;
6255;SDS011;3161;48.794;9.784;2024-03-22T02:52:16;13.70;;;6.47;;
6255;SDS011;3161;48.794;9.784;2024-03-22T02:54:43;13.23;;;6.60;;
6255;SDS011;3161;48.794;9.784;2024-03-22T02:57:11;10.63;;;6.17;;
6255;SDS011;3161;48.794;9.784;2024-03-22T02:59:38;8.93;;;6.40;;
6255;SDS011;3161;48.794;9.784;2024-03-22T03:02:06;8.67;;;6.30;;
6255;SDS011;3161;48.794;9.784;2024-03-22T03:04:33;7.47;;;6.07;;
6255;SDS011;3161;48.794;9.784;2024-03-22T03:07:01;8.73;;;6.57;;
6255;SDS011;3161;48.794;9.784;2024-03-22T03:09:29;9.30;;;6.20;;
6255;SDS011;3161;48.794;9.784;2024-03-22T03:11:56;9.50;;;6.13;;
6255;SDS011;3161;48.794;9.784;2024-03-22T03:14:24;7.90;;;5.80;;
6255;SDS011;3161;48.794;9.784;2024-03-22T03:16:51;7.90;;;5.60;;
6255;SDS011;3161;48.794;9.784;2024-03-22T03:19:19;10.70;;;6.70;;
6255;SDS011;3161;48.794;9.784;2024-03-22T03:21:46;6.73;;;6.03;;
6255;SDS011;3161;48.794;9.784;2024-03-22T03:24:14;11.20;;;5.90;;
6255;SDS011;3161;48.794;9.784;2024-03-22T03:26:41;7.97;;;6.00;;
6255;SDS011;3161;48.794;9.784;2024-03-22T03:29:09;10.37;;;6.23;;
6255;SDS011;3161;48.794;9.784;2024-03-22T03:31:36;9.20;;;5.80;;
6255;SDS011;3161;48.794;9.784;2024-03-22T03:34:04;6.73;;;5.53;;
6255;SDS011;3161;48.794;9.784;2024-03-22T03:36:31;11.83;;;5.43;;
6255;SDS011;3161;48.794;9.784;2024-03-22T03:38:59;8.00;;;5.90;;
6255;SDS011;3161;48.794;9.784;2024-03-22T03:41:26;13.03;;;5.67;;
6255;SDS011;3161;48.794;9.784;2024-03-22T03:43:54;9.70;;;5.97;;
6255;SDS011;3161;48.794;9.784;2024-03-22T03:46:21;9.33;;;6.00;;
6255;SDS011;3161;48.794;9.784;2024-03-22T03:48:49;10.07;;;6.60;;
6255;SDS011;3161;48.794;9.784;2024-03-22T03:51:16;10.93;;;5.70;;
6255;SDS011;3161;48.794;9.784;2024-03-22T03:53:44;8.50;;;6.23;;
6255;SDS011;3161;48.794;9.784;2024-03-22T03:56:11;11.33;;;5.67;;
6255;SDS011;3161;48.794;9.784;2024-03-22T03:58:39;13.87;;;6.37;;
6255;SDS011;3161;48.794;9.784;2024-03-22T04:01:07;9.20;;;6.20;;
6255;SDS011;3161;48.794;9.784;2024-03-22T04:03:35;8.13;;;6.43;;
6255;SDS011;3161;48.794;9.784;2024-03-22T04:06:03;8.97;;;6.93;;
6255;SDS011;3161;48.794;9.784;2024-03-22T04:08:30;8.50;;;6.50;;
6255;SDS011;3161;48.794;9.784;2024-03-22T04:10:58;11.17;;;7.30;;
6255;SDS011;3161;48.794;9.784;2024-03-22T04:13:26;8.97;;;7.50;;
6255;SDS011;3161;48.794;9.784;2024-03-22T04:15:54;10.20;;;7.50;;
6255;SDS011;3161;48.794;9.784;2024-03-22T04:18:25;10.80;;;7.03;;
6255;SDS011;3161;48.794;9.784;2024-03-22T04:20:53;8.90;;;6.60;;
6255;SDS011;3161;48.794;9.784;2024-03-22T04:23:22;10.87;;;6.83;;
6255;SDS011;3161;48.794;9.784;2024-03-22T04:25:54;8.10;;;6.90;;
6255;SDS011;3161;48.794;9.784;2024-03-22T04:28:23;10.20;;;7.03;;
6255;SDS011;3161;48.794;9.784;2024-03-22T04:30:57;11.10;;;6.50;;
6255;SDS011;3161;48.794;9.784;2024-03-22T04:33:30;9.33;;;6.53;;
6255;SDS011;3161;48.794;9.784;2024-03-22T04:35:58;10.67;;;7.13;;
6255;SDS011;3161;48.794;9.784;2024-03-22T04:38:27;8.53;;;6.90;;
6255;SDS011;3161;48.794;9.784;2024-03-22T04:40:55;13.57;;;6.57;;
6255;SDS011;3161;48.794;9.784;2024-03-22T04:43:23;9.87;;;6.33;;
6255;SDS011;3161;48.794;9.784;2024-03-22T04:45:52;8.80;;;6.47;;
6255;SDS011;3161;48.794;9.784;2024-03-22T04:48:20;10.70;;;6.77;;
6255;SDS011;3161;48.794;9.784;2024-03-22T04:50:49;11.83;;;7.07;;
6255;SDS011;3161;48.794;9.784;2024-03-22T04:53:17;9.00;;;7.03;;
6255;SDS011;3161;48.794;9.784;2024-03-22T04:55:48;16.63;;;6.90;;
6255;SDS011;3161;48.794;9.784;2024-03-22T04:58:20;9.90;;;6.63;;
6255;SDS011;3161;48.794;9.784;2024-03-22T05:00:48;12.13;;;7.17;;
6255;SDS011;3161;48.794;9.784;2024-03-22T05:03:16;13.57;;;7.40;;
6255;SDS011;3161;48.794;9.784;2024-03-22T05:05:44;8.73;;;6.23;;
6255;SDS011;3161;48.794;9.784;2024-03-22T05:08:12;8.77;;;6.50;;
6255;SDS011;3161;48.794;9.784;2024-03-22T05:10:43;14.77;;;7.13;;
6255;SDS011;3161;48.794;9.784;2024-03-22T05:13:11;9.60;;;6.73;;
6255;SDS011;3161;48.794;9.784;2024-03-22T05:15:38;11.97;;;7.03;;
6255;SDS011;3161;48.794;9.784;2024-03-22T05:18:06;11.03;;;7.27;;
6255;SDS011;3161;48.794;9.784;2024-03-22T05:20:33;10.17;;;7.53;;
6255;SDS011;3161;48.794;9.784;2024-03-22T05:23:01;11.90;;;6.87;;
6255;SDS011;3161;48.794;9.784;2024-03-22T05:25:29;9.87;;;7.50;;
6255;SDS011;3161;48.794;9.784;2024-03-22T05:27:56;9.87;;;7.03;;
6255;SDS011;3161;48.794;9.784;2024-03-22T05:30:24;11.13;;;7.57;;
6255;SDS011;3161;48.794;9.784;2024-03-22T05:32:52;10.43;;;7.50;;
6255;SDS011;3161;48.794;9.784;2024-03-22T05:35:19;11.77;;;7.37;;
6255;SDS011;3161;48.794;9.784;2024-03-22T05:37:47;11.03;;;7.10;;
6255;SDS011;3161;48.794;9.784;2024-03-22T05:40:15;11.00;;;7.63;;
6255;SDS011;3161;48.794;9.784;2024-03-22T05:42:43;12.00;;;7.63;;
6255;SDS011;3161;48.794;9.784;2024-03-22T05:45:10;11.03;;;7.27;;
6255;SDS011;3161;48.794;9.784;2024-03-22T05:47:38;12.03;;;7.80;;
6255;SDS011;3161;48.794;9.784;2024-03-22T05:50:06;14.70;;;8.10;;
6255;SDS011;3161;48.794;9.784;2024-03-22T05:52:34;11.67;;;7.70;;
6255;SDS011;3161;48.794;9.784;2024-03-22T05:55:02;13.80;;;8.07;;
6255;SDS011;3161;48.794;9.784;2024-03-22T05:57:30;12.23;;;7.67;;
6255;SDS011;3161;48.794;9.784;2024-03-22T05:59:58;12.97;;;7.83;;
6255;SDS011;3161;48.794;9.784;2024-03-22T06:02:25;11.83;;;7.87;;
6255;SDS011;3161;48.794;9.784;2024-03-22T06:04:53;12.57;;;8.30;;
6255;SDS011;3161;48.794;9.784;2024-03-22T06:07:20;10.20;;;7.97;;
6255;SDS011;3161;48.794;9.784;2024-03-22T06:09:48;10.47;;;8.27;;
6255;SDS011;3161;48.794;9.784;2024-03-22T06:12:15;12.80;;;8.60;;
6255;SDS011;3161;48.794;9.784;2024-03-22T06:14:43;14.37;;;7.53;;
6255;SDS011;3161;48.794;9.784;2024-03-22T06:17:13;11.73;;;7.80;;
6255;SDS011;3161;48.794;9.784;2024-03-22T06:19:41;10.73;;;7.87;;
6255;SDS011;3161;48.794;9.784;2024-03-22T06:22:09;10.93;;;6.73;;
6255;SDS011;3161;48.794;9.784;2024-03-22T06:24:37;10.83;;;7.90;;
6255;SDS011;3161;48.794;9.784;2024-03-22T06:27:04;13.00;;;7.70;;
6255;SDS011;3161;48.794;9.784;2024-03-22T06:29:33;10.30;;;6.73;;
6255;SDS011;3161;48.794;9.784;2024-03-22T06:32:00;16.77;;;8.33;;
6255;SDS011;3161;48.794;9.784;2024-03-22T06:34:28;11.57;;;7.33;;
6255;SDS011;3161;48.794;9.784;2024-03-22T06:36:56;10.10;;;6.47;;
6255;SDS011;3161;48.794;9.784;2024-03-22T06:39:24;10.37;;;6.80;;
6255;SDS011;3161;48.794;9.784;2024-03-22T06:41:51;9.47;;;7.30;;
6255;SDS011;3161;48.794;9.784;2024-03-22T06:44:19;9.60;;;7.70;;
6255;SDS011;3161;48.794;9.784;2024-03-22T06:46:46;11.10;;;7.10;;
6255;SDS011;3161;48.794;9.784;2024-03-22T06:49:14;14.47;;;8.03;;
6255;SDS011;3161;48.794;9.784;2024-03-22T06:51:41;10.77;;;7.37;;
6255;SDS011;3161;48.794;9.784;2024-03-22T06:54:09;11.07;;;7.97;;
6255;SDS011;3161;48.794;9.784;2024-03-22T06:56:36;12.73;;;8.10;;
6255;SDS011;3161;48.794;9.784;2024-03-22T06:59:04;9.90;;;7.13;;
6255;SDS011;3161;48.794;9.784;2024-03-22T07:01:31;10.37;;;6.60;;
6255;SDS011;3161;48.794;9.784;2024-03-22T07:03:59;13.50;;;7.97;;
6255;SDS011;3161;48.794;9.784;2024-03-22T07:06:26;11.57;;;8.20;;
6255;SDS011;3161;48.794;9.784;2024-03-22T07:08:54;15.00;;;9.67;;
6255;SDS011;3161;48.794;9.784;2024-03-22T07:11:22;16.90;;;10.83;;
6255;SDS011;3161;48.794;9.784;2024-03-22T07:13:49;16.00;;;8.53;;
6255;SDS011;3161;48.794;9.784;2024-03-22T07:16:18;11.63;;;7.83;;
6255;SDS011;3161;48.794;9.784;2024-03-22T07:18:45;11.33;;;7.70;;
6255;SDS011;3161;48.794;9.784;2024-03-22T07:21:14;9.30;;;7.17;;
6255;SDS011;3161;48.794;9.784;2024-03-22T07:23:42;9.47;;;6.87;;
6255;SDS011;3161;48.794;9.784;2024-03-22T07:26:11;8.80;;;6.70;;
6255;SDS011;3161;48.794;9.784;2024-03-22T07:28:38;9.53;;;7.53;;
6255;SDS011;3161;48.794;9.784;2024-03-22T07:31:06;11.73;;;7.77;;
6255;SDS011;3161;48.794;9.784;2024-03-22T07:33:33;12.80;;;8.07;;
6255;SDS011;3161;48.794;9.784;2024-03-22T07:36:01;13.70;;;7.40;;
6255;SDS011;3161;48.794;9.784;2024-03-22T07:38:29;12.60;;;7.13;;
6255;SDS011;3161;48.794;9.784;2024-03-22T07:40:57;11.60;;;6.70;;
6255;SDS011;3161;48.794;9.784;2024-03-22T07:43:26;8.90;;;6.20;;
6255;SDS011;3161;48.794;9.784;2024-03-22T07:45:54;12.60;;;6.87;;
6255;SDS011;3161;48.794;9.784;2024-03-22T07:48:21;9.30;;;5.83;;
6255;SDS011;3161;48.794;9.784;2024-03-22T07:50:55;8.90;;;6.37;;
6255;SDS011;3161;48.794;9.784;2024-03-22T07:53:24;11.20;;;5.60;;
6255;SDS011;3161;48.794;9.784;2024-03-22T07:55:52;7.37;;;6.00;;
6255;SDS011;3161;48.794;9.784;2024-03-22T07:58:20;15.80;;;6.03;;
6255;SDS011;3161;48.794;9.784;2024-03-22T08:00:47;9.23;;;6.73;;
6255;SDS011;3161;48.794;9.784;2024-03-22T08:03:15;8.67;;;5.80;;
6255;SDS011;3161;48.794;9.784;2024-03-22T08:05:43;8.70;;;5.83;;
6255;SDS011;3161;48.794;9.784;2024-03-22T08:08:11;8.48;;;5.65;;
6255;SDS011;3161;48.794;9.784;2024-03-22T08:10:38;8.30;;;5.53;;
6255;SDS011;3161;48.794;9.784;2024-03-22T08:13:06;9.68;;;5.80;;
6255;SDS011;3161;48.794;9.784;2024-03-22T08:15:33;8.63;;;5.17;;
6255;SDS011;3161;48.794;9.784;2024-03-22T08:18:02;8.28;;;5.78;;
6255;SDS011;3161;48.794;9.784;2024-03-22T08:20:29;8.15;;;5.67;;
6255;SDS011;3161;48.794;9.784;2024-03-22T08:22:58;8.58;;;6.15;;
6255;SDS011;3161;48.794;9.784;2024-03-22T08:25:26;8.05;;;5.60;;
6255;SDS011;3161;48.794;9.784;2024-03-22T08:27:54;6.95;;;5.47;;
6255;SDS011;3161;48.794;9.784;2024-03-22T08:30:22;7.03;;;5.87;;
6255;SDS011;3161;48.794;9.784;2024-03-22T08:32:51;7.40;;;4.90;;
6255;SDS011;3161;48.794;9.784;2024-03-22T08:35:19;9.18;;;5.72;;
6255;SDS011;3161;48.794;9.784;2024-03-22T08:37:46;6.10;;;5.50;;
6255;SDS011;3161;48.794;9.784;2024-03-22T08:40:14;7.78;;;6.10;;
6255;SDS011;3161;48.794;9.784;2024-03-22T08:42:41;6.40;;;4.95;;
6255;SDS011;3161;48.794;9.784;2024-03-22T08:45:09;7.75;;;4.83;;
6255;SDS011;3161;48.794;9.784;2024-03-22T08:47:36;6.15;;;5.50;;
6255;SDS011;3161;48.794;9.784;2024-03-22T08:50:06;7.90;;;5.37;;
6255;SDS011;3161;48.794;9.784;2024-03-22T08:52:34;8.18;;;5.28;;
6255;SDS011;3161;48.794;9.784;2024-03-22T08:55:02;7.22;;;5.60;;
6255;SDS011;3161;48.794;9.784;2024-03-22T08:57:31;7.67;;;6.08;;
6255;SDS011;3161;48.794;9.784;2024-03-22T08:59:59;6.80;;;5.55;;
6255;SDS011;3161;48.794;9.784;2024-03-22T09:02:27;11.85;;;6.10;;
6255;SDS011;3161;48.794;9.784;2024-03-22T09:04:54;7.97;;;5.35;;
6255;SDS011;3161;48.794;9.784;2024-03-22T09:07:22;9.35;;;5.90;;
6255;SDS011;3161;48.794;9.784;2024-03-22T09:09:49;7.50;;;5.87;;
6255;SDS011;3161;48.794;9.784;2024-03-22T09:12:18;9.03;;;5.40;;
6255;SDS011;3161;48.794;9.784;2024-03-22T09:14:46;9.33;;;5.58;;
6255;SDS011;3161;48.794;9.784;2024-03-22T09:17:13;6.05;;;5.10;;
6255;SDS011;3161;48.794;9.784;2024-03-22T09:19:41;5.92;;;5.35;;
6255;SDS011;3161;48.794;9.784;2024-03-22T09:22:08;7.05;;;5.05;;
6255;SDS011;3161;48.794;9.784;2024-03-22T09:24:36;7.00;;;5.30;;
6255;SDS011;3161;48.794;9.784;2024-03-22T09:27:03;14.23;;;5.83;;
6255;SDS011;3161;48.794;9.784;2024-03-22T09:29:33;10.85;;;5.65;;
6255;SDS011;3161;48.794;9.784;2024-03-22T09:32:00;7.05;;;5.03;;
6255;SDS011;3161;48.794;9.784;2024-03-22T09:34:28;5.20;;;4.70;;
6255;SDS011;3161;48.794;9.784;2024-03-22T09:36:56;6.97;;;5.50;;
6255;SDS011;3161;48.794;9.784;2024-03-22T09:39:24;11.22;;;5.90;;
6255;SDS011;3161;48.794;9.784;2024-03-22T09:41:53;5.92;;;5.15;;
6255;SDS011;3161;48.794;9.784;2024-03-22T09:44:23;8.00;;;5.42;;
6255;SDS011;3161;48.794;9.784;2024-03-22T09:46:54;6.80;;;5.08;;
6255;SDS011;3161;48.794;9.784;2024-03-22T09:49:23;8.85;;;5.90;;
6255;SDS011;3161;48.794;9.784;2024-03-22T09:51:51;5.65;;;4.78;;
6255;SDS011;3161;48.794;9.784;2024-03-22T09:54:19;5.58;;;5.05;;
6255;SDS011;3161;48.794;9.784;2024-03-22T09:56:46;7.65;;;4.67;;
6255;SDS011;3161;48.794;9.784;2024-03-22T09:59:16;7.80;;;4.67;;
6255;SDS011;3161;48.794;9.784;2024-03-22T10:01:44;4.72;;;4.30;;
6255;SDS011;3161;48.794;9.784;2024-03-22T10:04:12;6.08;;;4.67;;
6255;SDS011;3161;48.794;9.784;2024-03-22T10:06:40;5.33;;;4.53;;
6255;SDS011;3161;48.794;9.784;2024-03-22T10:09:08;6.17;;;4.35;;
6255;SDS011;3161;48.794;9.784;2024-03-22T10:11:35;7.10;;;4.90;;
6255;SDS011;3161;48.794;9.784;2024-03-22T10:14:03;5.00;;;4.20;;
6255;SDS011;3161;48.794;9.784;2024-03-22T10:16:34;6.30;;;4.40;;
6255;SDS011;3161;48.794;9.784;2024-03-22T10:19:01;4.83;;;4.33;;
6255;SDS011;3161;48.794;9.784;2024-03-22T10:21:29;5.55;;;4.28;;
6255;SDS011;3161;48.794;9.784;2024-03-22T10:23:57;4.05;;;3.65;;
6255;SDS011;3161;48.794;9.784;2024-03-22T10:26:25;6.10;;;4.30;;
6255;SDS011;3161;48.794;9.784;2024-03-22T10:28:52;13.25;;;4.35;;
6255;SDS011;3161;48.794;9.784;2024-03-22T10:31:20;4.03;;;3.50;;
6255;SDS011;3161;48.794;9.784;2024-03-22T10:33:48;4.45;;;3.87;;
6255;SDS011;3161;48.794;9.784;2024-03-22T10:36:16;3.98;;;3.47;;
6255;SDS011;3161;48.794;9.784;2024-03-22T10:38:45;4.65;;;3.25;;
6255;SDS011;3161;48.794;9.784;2024-03-22T10:41:17;5.62;;;3.52;;
6255;SDS011;3161;48.794;9.784;2024-03-22T10:43:44;3.72;;;3.42;;
6255;SDS011;3161;48.794;9.784;2024-03-22T10:46:12;5.78;;;3.27;;
6255;SDS011;3161;48.794;9.784;2024-03-22T10:48:40;3.45;;;2.92;;
6255;SDS011;3161;48.794;9.784;2024-03-22T10:51:10;4.22;;;3.40;;
6255;SDS011;3161;48.794;9.784;2024-03-22T10:53:41;4.62;;;3.00;;
6255;SDS011;3161;48.794;9.784;2024-03-22T10:56:09;3.62;;;2.92;;
6255;SDS011;3161;48.794;9.784;2024-03-22T10:58:41;5.37;;;3.30;;
6255;SDS011;3161;48.794;9.784;2024-03-22T11:01:21;4.83;;;3.27;;
6255;SDS011;3161;48.794;9.784;2024-03-22T11:03:40;4.15;;;3.25;;
6255;SDS011;3161;48.794;9.784;2024-03-22T11:06:07;4.20;;;3.08;;
6255;SDS011;3161;48.794;9.784;2024-03-22T11:08:35;5.92;;;3.00;;
6255;SDS011;3161;48.794;9.784;2024-03-22T11:11:10;3.15;;;2.85;;
6255;SDS011;3161;48.794;9.784;2024-03-22T11:13:41;5.53;;;2.65;;
6255;SDS011;3161;48.794;9.784;2024-03-22T11:16:09;5.25;;;2.90;;
6255;SDS011;3161;48.794;9.784;2024-03-22T11:18:37;4.10;;;2.90;;
6255;SDS011;3161;48.794;9.784;2024-03-22T11:21:06;2.95;;;2.65;;
6255;SDS011;3161;48.794;9.784;2024-03-22T11:23:35;5.35;;;3.27;;
6255;SDS011;3161;48.794;9.784;2024-03-22T11:26:03;4.20;;;3.22;;
6255;SDS011;3161;48.794;9.784;2024-03-22T11:28:32;3.52;;;3.22;;
6255;SDS011;3161;48.794;9.784;2024-03-22T11:31:00;5.72;;;2.90;;
6255;SDS011;3161;48.794;9.784;2024-03-22T11:33:27;3.37;;;2.47;;
6255;SDS011;3161;48.794;9.784;2024-03-22T11:36:01;3.62;;;3.33;;
6255;SDS011;3161;48.794;9.784;2024-03-22T11:38:31;4.03;;;2.95;;
6255;SDS011;3161;48.794;9.784;2024-03-22T11:40:59;7.15;;;3.17;;
6255;SDS011;3161;48.794;9.784;2024-03-22T11:43:28;5.22;;;2.62;;
6255;SDS011;3161;48.794;9.784;2024-03-22T11:45:56;4.25;;;2.67;;
6255;SDS011;3161;48.794;9.784;2024-03-22T11:48:25;5.28;;;3.10;;
6255;SDS011;3161;48.794;9.784;2024-03-22T11:50:53;4.37;;;3.15;;
6255;SDS011;3161;48.794;9.784;2024-03-22T11:53:21;5.62;;;2.58;;
6255;SDS011;3161;48.794;9.784;2024-03-22T11:55:49;5.55;;;2.72;;
6255;SDS011;3161;48.794;9.784;2024-03-22T11:58:18;3.60;;;2.95;;
6255;SDS011;3161;48.794;9.784;2024-03-22T12:00:45;17.65;;;3.40;;
6255;SDS011;3161;48.794;9.784;2024-03-22T12:03:13;5.22;;;3.35;;
6255;SDS011;3161;48.794;9.784;2024-03-22T12:05:41;4.50;;;2.50;;
6255;SDS011;3161;48.794;9.784;2024-03-22T12:08:08;5.10;;;2.87;;
6255;SDS011;3161;48.794;9.784;2024-03-22T12:10:36;7.22;;;3.30;;
6255;SDS011;3161;48.794;9.784;2024-03-22T12:13:04;11.73;;;3.33;;
6255;SDS011;3161;48.794;9.784;2024-03-22T12:15:31;32.30;;;3.85;;
6255;SDS011;3161;48.794;9.784;2024-03-22T12:17:59;8.85;;;4.83;;
6255;SDS011;3161;48.794;9.784;2024-03-22T12:20:26;3.90;;;2.70;;
6255;SDS011;3161;48.794;9.784;2024-03-22T12:22:55;4.60;;;2.87;;
6255;SDS011;3161;48.794;9.784;2024-03-22T12:25:23;6.08;;;3.15;;
6255;SDS011;3161;48.794;9.784;2024-03-22T12:27:50;3.92;;;3.10;;
6255;SDS011;3161;48.794;9.784;2024-03-22T12:30:18;7.75;;;3.77;;
6255;SDS011;3161;48.794;9.784;2024-03-22T12:32:45;10.60;;;3.50;;
6255;SDS011;3161;48.794;9.784;2024-03-22T12:35:13;5.90;;;2.98;;
6255;SDS011;3161;48.794;9.784;2024-03-22T12:37:40;8.40;;;3.47;;
6255;SDS011;3161;48.794;9.784;2024-03-22T12:40:08;3.92;;;3.25;;
6255;SDS011;3161;48.794;9.784;2024-03-22T12:42:37;5.53;;;3.15;;
6255;SDS011;3161;48.794;9.784;2024-03-22T12:45:05;9.00;;;2.90;;
6255;SDS011;3161;48.794;9.784;2024-03-22T12:47:33;4.22;;;2.72;;
6255;SDS011;3161;48.794;9.784;2024-03-22T12:50:01;3.45;;;2.83;;
6255;SDS011;3161;48.794;9.784;2024-03-22T12:52:30;3.20;;;2.72;;
6255;SDS011;3161;48.794;9.784;2024-03-22T12:54:57;8.08;;;2.85;;
6255;SDS011;3161;48.794;9.784;2024-03-22T12:57:25;5.10;;;3.08;;
6255;SDS011;3161;48.794;9.784;2024-03-22T12:59:52;3.45;;;2.75;;
6255;SDS011;3161;48.794;9.784;2024-03-22T13:02:20;3.85;;;2.65;;
6255;SDS011;3161;48.794;9.784;2024-03-22T13:04:47;3.42;;;2.62;;
6255;SDS011;3161;48.794;9.784;2024-03-22T13:07:16;3.25;;;2.80;;
6255;SDS011;3161;48.794;9.784;2024-03-22T13:09:44;4.40;;;2.58;;
6255;SDS011;3161;48.794;9.784;2024-03-22T13:12:11;4.50;;;3.20;;
6255;SDS011;3161;48.794;9.784;2024-03-22T13:14:39;9.73;;;2.75;;
6255;SDS011;3161;48.794;9.784;2024-03-22T13:17:06;4.20;;;3.05;;
6255;SDS011;3161;48.794;9.784;2024-03-22T13:19:34;5.45;;;3.20;;
6255;SDS011;3161;48.794;9.784;2024-03-22T13:22:02;4.45;;;2.52;;
6255;SDS011;3161;48.794;9.784;2024-03-22T13:24:30;3.15;;;2.80;;
6255;SDS011;3161;48.794;9.784;2024-03-22T13:26:58;5.35;;;2.30;;
6255;SDS011;3161;48.794;9.784;2024-03-22T13:29:25;3.10;;;2.80;;
6255;SDS011;3161;48.794;9.784;2024-03-22T13:31:57;7.12;;;2.60;;
6255;SDS011;3161;48.794;9.784;2024-03-22T13:34:25;8.20;;;3.00;;
6255;SDS011;3161;48.794;9.784;2024-03-22T13:36:52;2.98;;;2.47;;
6255;SDS011;3161;48.794;9.784;2024-03-22T13:39:20;5.00;;;3.67;;
6255;SDS011;3161;48.794;9.784;2024-03-22T13:41:49;4.00;;;2.72;;
6255;SDS011;3161;48.794;9.784;2024-03-22T13:44:16;3.10;;;2.80;;
6255;SDS011;3161;48.794;9.784;2024-03-22T13:46:44;5.33;;;2.37;;
6255;SDS011;3161;48.794;9.784;2024-03-22T13:49:14;6.45;;;2.50;;
6255;SDS011;3161;48.794;9.784;2024-03-22T13:51:43;2.58;;;1.98;;
6255;SDS011;3161;48.794;9.784;2024-03-22T13:54:12;2.30;;;2.08;;
6255;SDS011;3161;48.794;9.784;2024-03-22T13:56:40;4.30;;;2.58;;
6255;SDS011;3161;48.794;9.784;2024-03-22T13:59:08;4.05;;;2.27;;
6255;SDS011;3161;48.794;9.784;2024-03-22T14:01:36;3.37;;;2.35;;
6255;SDS011;3161;48.794;9.784;2024-03-22T14:04:06;2.87;;;2.17;;
6255;SDS011;3161;48.794;9.784;2024-03-22T14:06:33;3.52;;;2.30;;
6255;SDS011;3161;48.794;9.784;2024-03-22T14:09:00;2.75;;;1.75;;
6255;SDS011;3161;48.794;9.784;2024-03-22T14:11:29;4.90;;;2.17;;
6255;SDS011;3161;48.794;9.784;2024-03-22T14:13:57;6.20;;;2.72;;
6255;SDS011;3161;48.794;9.784;2024-03-22T14:16:26;3.37;;;2.33;;
6255;SDS011;3161;48.794;9.784;2024-03-22T14:18:54;4.58;;;2.17;;
6255;SDS011;3161;48.794;9.784;2024-03-22T14:21:21;2.90;;;2.47;;
6255;SDS011;3161;48.794;9.784;2024-03-22T14:23:49;5.22;;;2.52;;
6255;SDS011;3161;48.794;9.784;2024-03-22T14:26:18;3.20;;;2.15;;
6255;SDS011;3161;48.794;9.784;2024-03-22T14:28:45;5.12;;;2.25;;
6255;SDS011;3161;48.794;9.784;2024-03-22T14:31:13;3.60;;;2.12;;
6255;SDS011;3161;48.794;9.784;2024-03-22T14:33:41;6.22;;;2.92;;
6255;SDS011;3161;48.794;9.784;2024-03-22T14:36:09;3.55;;;1.90;;
6255;SDS011;3161;48.794;9.784;2024-03-22T14:38:36;6.70;;;2.80;;
6255;SDS011;3161;48.794;9.784;2024-03-22T14:41:04;3.35;;;2.60;;
6255;SDS011;3161;48.794;9.784;2024-03-22T14:43:32;5.35;;;2.30;;
6255;SDS011;3161;48.794;9.784;2024-03-22T14:46:02;7.03;;;2.58;;
6255;SDS011;3161;48.794;9.784;2024-03-22T14:48:29;4.60;;;2.45;;
6255;SDS011;3161;48.794;9.784;2024-03-22T14:50:57;3.02;;;2.72;;
6255;SDS011;3161;48.794;9.784;2024-03-22T14:53:25;18.82;;;9.60;;
6255;SDS011;3161;48.794;9.784;2024-03-22T14:58:25;3.45;;;2.10;;
6255;SDS011;3161;48.794;9.784;2024-03-22T15:00:53;6.62;;;3.33;;
6255;SDS011;3161;48.794;9.784;2024-03-22T15:03:21;5.42;;;3.92;;
6255;SDS011;3161;48.794;9.784;2024-03-22T15:05:53;3.90;;;2.10;;
6255;SDS011;3161;48.794;9.784;2024-03-22T15:08:22;8.35;;;2.72;;
6255;SDS011;3161;48.794;9.784;2024-03-22T15:10:49;4.65;;;3.02;;
6255;SDS011;3161;48.794;9.784;2024-03-22T15:13:17;6.15;;;2.87;;
6255;SDS011;3161;48.794;9.784;2024-03-22T15:15:57;3.25;;;2.55;;
6255;SDS011;3161;48.794;9.784;2024-03-22T15:18:25;4.83;;;2.12;;